sensor_id;sensor_type;location;lat;lon;timestamp;P1;durP1;ratioP1;P2;durP2;ratioP2
65377;SDS011;77039;51.042;13.806;2024-03-08T00:01:14;24.25;;;11.07;;
65377;SDS011;77039;51.042;13.806;2024-03-08T00:03:41;24.65;;;11.02;;
65377;SDS011;77039;51.042;13.806;2024-03-08T00:06:07;24.75;;;11.35;;
65377;SDS011;77039;51.042;13.806;2024-03-08T00:08:32;22.48;;;11.45;;
65377;SDS011;77039;51.042;13.806;2024-03-08T00:10:58;25.85;;;11.20;;
65377;SDS011;77039;51.042;13.806;2024-03-08T00:13:24;20.35;;;11.30;;
65377;SDS011;77039;51.042;13.806;2024-03-08T00:15:50;20.48;;;10.40;;
65377;SDS011;77039;51.042;13.806;2024-03-08T00:18:16;24.40;;;11.18;;
65377;SDS011;77039;51.042;13.806;2024-03-08T00:20:42;23.23;;;10.18;;
65377;SDS011;77039;51.042;13.806;2024-03-08T00:23:09;19.65;;;10.18;;
65377;SDS011;77039;51.042;13.806;2024-03-08T00:25:35;22.02;;;10.88;;
65377;SDS011;77039;51.042;13.806;2024-03-08T00:28:01;22.15;;;11.27;;
65377;SDS011;77039;51.042;13.806;2024-03-08T00:30:27;25.05;;;12.20;;
65377;SDS011;77039;51.042;13.806;2024-03-08T00:32:52;27.00;;;10.95;;
65377;SDS011;77039;51.042;13.806;2024-03-08T00:35:18;22.95;;;11.00;;
65377;SDS011;77039;51.042;13.806;2024-03-08T00:37:43;30.17;;;11.88;;
65377;SDS011;77039;51.042;13.806;2024-03-08T00:40:12;22.08;;;11.43;;
65377;SDS011;77039;51.042;13.806;2024-03-08T00:42:38;22.67;;;12.05;;
65377;SDS011;77039;51.042;13.806;2024-03-08T00:45:05;22.23;;;11.02;;
65377;SDS011;77039;51.042;13.806;2024-03-08T00:47:31;21.92;;;10.63;;
65377;SDS011;77039;51.042;13.806;2024-03-08T00:49:57;24.40;;;11.65;;
65377;SDS011;77039;51.042;13.806;2024-03-08T00:52:22;21.98;;;11.10;;
65377;SDS011;77039;51.042;13.806;2024-03-08T00:54:51;22.90;;;11.32;;
65377;SDS011;77039;51.042;13.806;2024-03-08T00:57:17;22.15;;;11.88;;
65377;SDS011;77039;51.042;13.806;2024-03-08T00:59:43;22.85;;;11.23;;
65377;SDS011;77039;51.042;13.806;2024-03-08T01:02:08;25.23;;;11.65;;
65377;SDS011;77039;51.042;13.806;2024-03-08T01:04:36;21.10;;;10.98;;
65377;SDS011;77039;51.042;13.806;2024-03-08T01:07:02;22.70;;;11.20;;
65377;SDS011;77039;51.042;13.806;2024-03-08T01:09:28;24.27;;;12.30;;
65377;SDS011;77039;51.042;13.806;2024-03-08T01:11:54;21.30;;;10.95;;
65377;SDS011;77039;51.042;13.806;2024-03-08T01:14:20;20.52;;;10.52;;
65377;SDS011;77039;51.042;13.806;2024-03-08T01:16:51;23.10;;;10.90;;
65377;SDS011;77039;51.042;13.806;2024-03-08T01:19:17;19.25;;;10.60;;
65377;SDS011;77039;51.042;13.806;2024-03-08T01:21:43;24.85;;;12.15;;
65377;SDS011;77039;51.042;13.806;2024-03-08T01:24:09;23.23;;;11.07;;
65377;SDS011;77039;51.042;13.806;2024-03-08T01:26:34;18.42;;;10.27;;
65377;SDS011;77039;51.042;13.806;2024-03-08T01:29:00;22.42;;;11.30;;
65377;SDS011;77039;51.042;13.806;2024-03-08T01:31:30;28.25;;;11.63;;
65377;SDS011;77039;51.042;13.806;2024-03-08T01:33:56;23.02;;;11.10;;
65377;SDS011;77039;51.042;13.806;2024-03-08T01:36:22;24.98;;;11.85;;
65377;SDS011;77039;51.042;13.806;2024-03-08T01:38:48;23.92;;;11.82;;
65377;SDS011;77039;51.042;13.806;2024-03-08T01:41:14;20.17;;;10.60;;
65377;SDS011;77039;51.042;13.806;2024-03-08T01:43:42;29.27;;;11.55;;
65377;SDS011;77039;51.042;13.806;2024-03-08T01:46:08;24.77;;;11.93;;
65377;SDS011;77039;51.042;13.806;2024-03-08T01:48:34;25.77;;;11.50;;
65377;SDS011;77039;51.042;13.806;2024-03-08T01:51:00;22.70;;;10.88;;
65377;SDS011;77039;51.042;13.806;2024-03-08T01:53:28;26.73;;;10.82;;
65377;SDS011;77039;51.042;13.806;2024-03-08T01:55:56;26.95;;;11.95;;
65377;SDS011;77039;51.042;13.806;2024-03-08T01:58:23;21.10;;;10.50;;
65377;SDS011;77039;51.042;13.806;2024-03-08T02:00:50;20.35;;;10.82;;
65377;SDS011;77039;51.042;13.806;2024-03-08T02:03:16;20.27;;;10.23;;
65377;SDS011;77039;51.042;13.806;2024-03-08T02:05:42;24.08;;;11.25;;
65377;SDS011;77039;51.042;13.806;2024-03-08T02:08:08;20.80;;;11.05;;
65377;SDS011;77039;51.042;13.806;2024-03-08T02:10:39;21.63;;;11.18;;
65377;SDS011;77039;51.042;13.806;2024-03-08T02:13:04;22.00;;;11.13;;
65377;SDS011;77039;51.042;13.806;2024-03-08T02:18:16;19.40;;;10.45;;
65377;SDS011;77039;51.042;13.806;2024-03-08T02:20:42;26.60;;;11.25;;
65377;SDS011;77039;51.042;13.806;2024-03-08T02:23:08;20.67;;;10.73;;
65377;SDS011;77039;51.042;13.806;2024-03-08T02:25:34;24.98;;;12.18;;
65377;SDS011;77039;51.042;13.806;2024-03-08T02:28:00;23.20;;;11.23;;
65377;SDS011;77039;51.042;13.806;2024-03-08T02:30:26;22.88;;;10.93;;
65377;SDS011;77039;51.042;13.806;2024-03-08T02:32:54;23.60;;;12.02;;
65377;SDS011;77039;51.042;13.806;2024-03-08T02:35:20;22.02;;;10.98;;
65377;SDS011;77039;51.042;13.806;2024-03-08T02:37:46;24.75;;;11.07;;
65377;SDS011;77039;51.042;13.806;2024-03-08T02:40:13;22.40;;;11.38;;
65377;SDS011;77039;51.042;13.806;2024-03-08T02:42:38;22.83;;;10.75;;
65377;SDS011;77039;51.042;13.806;2024-03-08T02:45:04;24.50;;;11.20;;
65377;SDS011;77039;51.042;13.806;2024-03-08T02:47:31;21.75;;;11.68;;
65377;SDS011;77039;51.042;13.806;2024-03-08T02:49:56;19.83;;;10.75;;
65377;SDS011;77039;51.042;13.806;2024-03-08T02:52:22;22.90;;;11.20;;
65377;SDS011;77039;51.042;13.806;2024-03-08T02:54:48;23.05;;;11.38;;
65377;SDS011;77039;51.042;13.806;2024-03-08T02:57:13;22.80;;;11.18;;
65377;SDS011;77039;51.042;13.806;2024-03-08T02:59:40;21.88;;;11.55;;
65377;SDS011;77039;51.042;13.806;2024-03-08T03:02:05;26.15;;;12.48;;
65377;SDS011;77039;51.042;13.806;2024-03-08T03:04:31;25.55;;;12.05;;
65377;SDS011;77039;51.042;13.806;2024-03-08T03:07:00;26.27;;;12.45;;
65377;SDS011;77039;51.042;13.806;2024-03-08T03:09:26;21.85;;;11.60;;
65377;SDS011;77039;51.042;13.806;2024-03-08T03:12:10;23.33;;;12.20;;
65377;SDS011;77039;51.042;13.806;2024-03-08T03:14:35;27.80;;;11.93;;
65377;SDS011;77039;51.042;13.806;2024-03-08T03:17:19;29.55;;;12.55;;
65377;SDS011;77039;51.042;13.806;2024-03-08T03:19:45;23.48;;;11.88;;
65377;SDS011;77039;51.042;13.806;2024-03-08T03:22:11;23.45;;;12.10;;
65377;SDS011;77039;51.042;13.806;2024-03-08T03:24:37;25.05;;;11.45;;
65377;SDS011;77039;51.042;13.806;2024-03-08T03:27:07;24.35;;;12.18;;
65377;SDS011;77039;51.042;13.806;2024-03-08T03:29:41;23.30;;;11.55;;
65377;SDS011;77039;51.042;13.806;2024-03-08T03:32:10;24.67;;;11.82;;
65377;SDS011;77039;51.042;13.806;2024-03-08T03:34:37;22.90;;;11.40;;
65377;SDS011;77039;51.042;13.806;2024-03-08T03:37:03;25.80;;;12.20;;
65377;SDS011;77039;51.042;13.806;2024-03-08T03:39:29;22.55;;;11.95;;
65377;SDS011;77039;51.042;13.806;2024-03-08T03:41:59;22.85;;;12.38;;
65377;SDS011;77039;51.042;13.806;2024-03-08T03:44:27;24.17;;;12.43;;
65377;SDS011;77039;51.042;13.806;2024-03-08T03:46:53;23.05;;;11.85;;
65377;SDS011;77039;51.042;13.806;2024-03-08T03:49:19;24.00;;;11.85;;
65377;SDS011;77039;51.042;13.806;2024-03-08T03:51:44;26.17;;;12.50;;
65377;SDS011;77039;51.042;13.806;2024-03-08T03:54:10;26.00;;;12.63;;
65377;SDS011;77039;51.042;13.806;2024-03-08T03:56:36;24.13;;;11.95;;
65377;SDS011;77039;51.042;13.806;2024-03-08T03:59:01;23.25;;;12.30;;
65377;SDS011;77039;51.042;13.806;2024-03-08T04:01:27;27.38;;;11.80;;
65377;SDS011;77039;51.042;13.806;2024-03-08T04:03:54;24.70;;;11.88;;
65377;SDS011;77039;51.042;13.806;2024-03-08T04:06:20;23.73;;;12.00;;
65377;SDS011;77039;51.042;13.806;2024-03-08T04:08:45;21.90;;;11.23;;
65377;SDS011;77039;51.042;13.806;2024-03-08T04:11:11;26.33;;;11.73;;
65377;SDS011;77039;51.042;13.806;2024-03-08T04:13:36;23.17;;;11.27;;
65377;SDS011;77039;51.042;13.806;2024-03-08T04:16:02;21.85;;;11.75;;
65377;SDS011;77039;51.042;13.806;2024-03-08T04:18:33;28.77;;;11.93;;
65377;SDS011;77039;51.042;13.806;2024-03-08T04:21:01;22.88;;;11.93;;
65377;SDS011;77039;51.042;13.806;2024-03-08T04:23:27;22.42;;;11.77;;
65377;SDS011;77039;51.042;13.806;2024-03-08T04:25:54;25.52;;;12.38;;
65377;SDS011;77039;51.042;13.806;2024-03-08T04:28:19;25.75;;;13.25;;
65377;SDS011;77039;51.042;13.806;2024-03-08T04:30:45;24.90;;;11.65;;
65377;SDS011;77039;51.042;13.806;2024-03-08T04:33:11;22.88;;;11.80;;
65377;SDS011;77039;51.042;13.806;2024-03-08T04:35:36;23.35;;;11.68;;
65377;SDS011;77039;51.042;13.806;2024-03-08T04:38:02;24.27;;;11.63;;
65377;SDS011;77039;51.042;13.806;2024-03-08T04:40:30;25.02;;;11.68;;
65377;SDS011;77039;51.042;13.806;2024-03-08T04:42:56;24.90;;;11.77;;
65377;SDS011;77039;51.042;13.806;2024-03-08T04:45:24;26.20;;;12.35;;
65377;SDS011;77039;51.042;13.806;2024-03-08T04:47:51;25.98;;;12.63;;
65377;SDS011;77039;51.042;13.806;2024-03-08T04:50:17;24.88;;;12.43;;
65377;SDS011;77039;51.042;13.806;2024-03-08T04:52:43;25.85;;;12.13;;
65377;SDS011;77039;51.042;13.806;2024-03-08T04:55:09;23.30;;;11.57;;
65377;SDS011;77039;51.042;13.806;2024-03-08T04:57:35;26.25;;;12.55;;
65377;SDS011;77039;51.042;13.806;2024-03-08T05:00:02;27.67;;;12.65;;
65377;SDS011;77039;51.042;13.806;2024-03-08T05:02:29;25.70;;;12.57;;
65377;SDS011;77039;51.042;13.806;2024-03-08T05:04:55;21.65;;;11.38;;
65377;SDS011;77039;51.042;13.806;2024-03-08T05:07:20;22.83;;;11.23;;
65377;SDS011;77039;51.042;13.806;2024-03-08T05:09:46;27.13;;;12.65;;
65377;SDS011;77039;51.042;13.806;2024-03-08T05:12:16;24.98;;;11.88;;
65377;SDS011;77039;51.042;13.806;2024-03-08T05:14:44;22.10;;;11.68;;
65377;SDS011;77039;51.042;13.806;2024-03-08T05:17:16;28.77;;;12.07;;
65377;SDS011;77039;51.042;13.806;2024-03-08T05:19:43;29.27;;;12.35;;
65377;SDS011;77039;51.042;13.806;2024-03-08T05:22:09;28.60;;;12.02;;
65377;SDS011;77039;51.042;13.806;2024-03-08T05:24:34;25.70;;;12.27;;
65377;SDS011;77039;51.042;13.806;2024-03-08T05:27:00;27.08;;;12.73;;
65377;SDS011;77039;51.042;13.806;2024-03-08T05:29:27;25.15;;;12.07;;
65377;SDS011;77039;51.042;13.806;2024-03-08T05:31:54;24.65;;;11.80;;
65377;SDS011;77039;51.042;13.806;2024-03-08T05:34:20;25.75;;;11.48;;
65377;SDS011;77039;51.042;13.806;2024-03-08T05:36:47;23.40;;;12.32;;
65377;SDS011;77039;51.042;13.806;2024-03-08T05:39:14;24.40;;;11.90;;
65377;SDS011;77039;51.042;13.806;2024-03-08T05:41:41;23.33;;;11.90;;
65377;SDS011;77039;51.042;13.806;2024-03-08T05:44:07;25.67;;;11.75;;
65377;SDS011;77039;51.042;13.806;2024-03-08T05:46:34;32.78;;;13.18;;
65377;SDS011;77039;51.042;13.806;2024-03-08T05:49:05;26.38;;;13.15;;
65377;SDS011;77039;51.042;13.806;2024-03-08T05:51:31;26.67;;;11.93;;
65377;SDS011;77039;51.042;13.806;2024-03-08T05:54:02;29.83;;;13.82;;
65377;SDS011;77039;51.042;13.806;2024-03-08T05:56:30;31.80;;;13.40;;
65377;SDS011;77039;51.042;13.806;2024-03-08T05:58:56;31.17;;;13.23;;
65377;SDS011;77039;51.042;13.806;2024-03-08T06:01:23;32.00;;;14.60;;
65377;SDS011;77039;51.042;13.806;2024-03-08T06:03:49;32.47;;;15.52;;
65377;SDS011;77039;51.042;13.806;2024-03-08T06:06:15;31.48;;;14.32;;
65377;SDS011;77039;51.042;13.806;2024-03-08T06:08:42;35.45;;;14.80;;
65377;SDS011;77039;51.042;13.806;2024-03-08T06:11:08;33.55;;;15.35;;
65377;SDS011;77039;51.042;13.806;2024-03-08T06:13:34;28.45;;;13.75;;
65377;SDS011;77039;51.042;13.806;2024-03-08T06:16:00;23.15;;;12.25;;
65377;SDS011;77039;51.042;13.806;2024-03-08T06:18:35;29.05;;;13.30;;
65377;SDS011;77039;51.042;13.806;2024-03-08T06:21:08;25.02;;;11.95;;
65377;SDS011;77039;51.042;13.806;2024-03-08T06:23:36;29.48;;;13.70;;
65377;SDS011;77039;51.042;13.806;2024-03-08T06:26:21;30.23;;;13.68;;
65377;SDS011;77039;51.042;13.806;2024-03-08T06:28:47;25.35;;;12.68;;
65377;SDS011;77039;51.042;13.806;2024-03-08T06:31:18;27.05;;;13.38;;
65377;SDS011;77039;51.042;13.806;2024-03-08T06:33:45;29.10;;;12.85;;
65377;SDS011;77039;51.042;13.806;2024-03-08T06:36:10;26.83;;;13.05;;
65377;SDS011;77039;51.042;13.806;2024-03-08T06:38:37;31.05;;;13.60;;
65377;SDS011;77039;51.042;13.806;2024-03-08T06:41:08;27.90;;;12.73;;
65377;SDS011;77039;51.042;13.806;2024-03-08T06:43:34;25.45;;;12.52;;
65377;SDS011;77039;51.042;13.806;2024-03-08T06:46:00;27.67;;;12.70;;
65377;SDS011;77039;51.042;13.806;2024-03-08T06:48:25;23.20;;;11.80;;
65377;SDS011;77039;51.042;13.806;2024-03-08T06:50:51;26.60;;;11.70;;
65377;SDS011;77039;51.042;13.806;2024-03-08T06:53:16;27.95;;;12.05;;
65377;SDS011;77039;51.042;13.806;2024-03-08T06:55:45;25.70;;;11.32;;
65377;SDS011;77039;51.042;13.806;2024-03-08T06:58:10;25.60;;;12.05;;
65377;SDS011;77039;51.042;13.806;2024-03-08T07:00:36;24.55;;;11.73;;
65377;SDS011;77039;51.042;13.806;2024-03-08T07:03:02;28.77;;;13.57;;
65377;SDS011;77039;51.042;13.806;2024-03-08T07:05:29;29.77;;;12.25;;
65377;SDS011;77039;51.042;13.806;2024-03-08T07:07:55;27.08;;;12.80;;
65377;SDS011;77039;51.042;13.806;2024-03-08T07:10:24;25.13;;;12.38;;
65377;SDS011;77039;51.042;13.806;2024-03-08T07:12:53;28.65;;;13.80;;
65377;SDS011;77039;51.042;13.806;2024-03-08T07:15:18;24.52;;;12.40;;
65377;SDS011;77039;51.042;13.806;2024-03-08T07:17:45;26.20;;;13.45;;
65377;SDS011;77039;51.042;13.806;2024-03-08T07:20:11;25.02;;;11.75;;
65377;SDS011;77039;51.042;13.806;2024-03-08T07:22:38;29.98;;;12.52;;
65377;SDS011;77039;51.042;13.806;2024-03-08T07:25:07;27.30;;;13.57;;
65377;SDS011;77039;51.042;13.806;2024-03-08T07:27:33;29.13;;;13.93;;
65377;SDS011;77039;51.042;13.806;2024-03-08T07:30:02;40.60;;;13.80;;
65377;SDS011;77039;51.042;13.806;2024-03-08T07:32:28;23.38;;;12.90;;
65377;SDS011;77039;51.042;13.806;2024-03-08T07:34:55;33.42;;;14.45;;
65377;SDS011;77039;51.042;13.806;2024-03-08T07:37:21;32.25;;;14.93;;
65377;SDS011;77039;51.042;13.806;2024-03-08T07:39:47;29.67;;;14.23;;
65377;SDS011;77039;51.042;13.806;2024-03-08T07:42:12;31.23;;;14.20;;
65377;SDS011;77039;51.042;13.806;2024-03-08T07:44:38;28.67;;;14.68;;
65377;SDS011;77039;51.042;13.806;2024-03-08T07:47:04;29.85;;;13.48;;
65377;SDS011;77039;51.042;13.806;2024-03-08T07:49:30;27.05;;;13.18;;
65377;SDS011;77039;51.042;13.806;2024-03-08T07:51:56;27.50;;;13.13;;
65377;SDS011;77039;51.042;13.806;2024-03-08T07:54:23;25.98;;;12.82;;
65377;SDS011;77039;51.042;13.806;2024-03-08T07:56:48;25.02;;;12.02;;
65377;SDS011;77039;51.042;13.806;2024-03-08T07:59:15;25.05;;;12.30;;
65377;SDS011;77039;51.042;13.806;2024-03-08T08:01:41;23.55;;;12.30;;
65377;SDS011;77039;51.042;13.806;2024-03-08T08:04:06;26.48;;;12.80;;
65377;SDS011;77039;51.042;13.806;2024-03-08T08:06:37;26.23;;;12.07;;
65377;SDS011;77039;51.042;13.806;2024-03-08T08:09:06;24.58;;;12.43;;
65377;SDS011;77039;51.042;13.806;2024-03-08T08:11:39;21.02;;;11.35;;
65377;SDS011;77039;51.042;13.806;2024-03-08T08:14:06;21.90;;;11.73;;
65377;SDS011;77039;51.042;13.806;2024-03-08T08:16:34;19.63;;;7.38;;
65377;SDS011;77039;51.042;13.806;2024-03-08T08:19:02;29.15;;;12.45;;
65377;SDS011;77039;51.042;13.806;2024-03-08T08:21:35;27.45;;;12.85;;
65377;SDS011;77039;51.042;13.806;2024-03-08T08:24:03;24.13;;;11.95;;
65377;SDS011;77039;51.042;13.806;2024-03-08T08:26:29;25.02;;;11.75;;
65377;SDS011;77039;51.042;13.806;2024-03-08T08:28:55;24.45;;;12.45;;
65377;SDS011;77039;51.042;13.806;2024-03-08T08:31:21;28.45;;;12.15;;
65377;SDS011;77039;51.042;13.806;2024-03-08T08:33:47;25.45;;;12.73;;
65377;SDS011;77039;51.042;13.806;2024-03-08T08:36:14;21.08;;;11.48;;
65377;SDS011;77039;51.042;13.806;2024-03-08T08:38:40;25.17;;;11.95;;
65377;SDS011;77039;51.042;13.806;2024-03-08T08:41:08;25.10;;;11.85;;
65377;SDS011;77039;51.042;13.806;2024-03-08T08:43:34;22.60;;;11.80;;
65377;SDS011;77039;51.042;13.806;2024-03-08T08:46:00;23.48;;;11.43;;
65377;SDS011;77039;51.042;13.806;2024-03-08T08:48:26;20.45;;;10.65;;
65377;SDS011;77039;51.042;13.806;2024-03-08T08:50:53;23.17;;;11.40;;
65377;SDS011;77039;51.042;13.806;2024-03-08T08:53:18;20.98;;;11.27;;
65377;SDS011;77039;51.042;13.806;2024-03-08T08:55:44;22.65;;;10.85;;
65377;SDS011;77039;51.042;13.806;2024-03-08T08:58:11;25.60;;;11.27;;
65377;SDS011;77039;51.042;13.806;2024-03-08T09:00:36;23.27;;;11.07;;
65377;SDS011;77039;51.042;13.806;2024-03-08T09:03:02;20.48;;;10.45;;
65377;SDS011;77039;51.042;13.806;2024-03-08T09:05:27;21.50;;;10.75;;
65377;SDS011;77039;51.042;13.806;2024-03-08T09:07:53;27.35;;;11.75;;
65377;SDS011;77039;51.042;13.806;2024-03-08T09:10:19;20.27;;;11.05;;
65377;SDS011;77039;51.042;13.806;2024-03-08T09:12:46;24.05;;;11.50;;
65377;SDS011;77039;51.042;13.806;2024-03-08T09:15:13;21.63;;;11.60;;
65377;SDS011;77039;51.042;13.806;2024-03-08T09:17:38;19.10;;;10.25;;
65377;SDS011;77039;51.042;13.806;2024-03-08T09:20:05;21.05;;;10.20;;
65377;SDS011;77039;51.042;13.806;2024-03-08T09:22:44;21.77;;;11.05;;
65377;SDS011;77039;51.042;13.806;2024-03-08T09:25:10;15.68;;;7.93;;
65377;SDS011;77039;51.042;13.806;2024-03-08T09:27:35;20.75;;;10.38;;
65377;SDS011;77039;51.042;13.806;2024-03-08T09:30:01;21.75;;;10.05;;
65377;SDS011;77039;51.042;13.806;2024-03-08T09:32:26;21.48;;;10.35;;
65377;SDS011;77039;51.042;13.806;2024-03-08T09:34:52;18.15;;;9.00;;
65377;SDS011;77039;51.042;13.806;2024-03-08T09:37:17;19.27;;;9.98;;
65377;SDS011;77039;51.042;13.806;2024-03-08T09:39:44;19.15;;;10.88;;
65377;SDS011;77039;51.042;13.806;2024-03-08T09:42:10;23.17;;;10.48;;
65377;SDS011;77039;51.042;13.806;2024-03-08T09:44:43;22.70;;;10.48;;
65377;SDS011;77039;51.042;13.806;2024-03-08T09:47:09;19.65;;;9.88;;
65377;SDS011;77039;51.042;13.806;2024-03-08T09:49:38;16.70;;;9.20;;
65377;SDS011;77039;51.042;13.806;2024-03-08T09:52:06;15.45;;;9.07;;
65377;SDS011;77039;51.042;13.806;2024-03-08T09:54:32;20.10;;;10.07;;
65377;SDS011;77039;51.042;13.806;2024-03-08T09:56:58;19.25;;;10.05;;
65377;SDS011;77039;51.042;13.806;2024-03-08T09:59:24;18.00;;;9.75;;
65377;SDS011;77039;51.042;13.806;2024-03-08T10:01:53;17.13;;;9.60;;
65377;SDS011;77039;51.042;13.806;2024-03-08T10:04:21;15.65;;;9.05;;
65377;SDS011;77039;51.042;13.806;2024-03-08T10:06:47;16.10;;;9.38;;
65377;SDS011;77039;51.042;13.806;2024-03-08T10:09:14;16.83;;;9.73;;
65377;SDS011;77039;51.042;13.806;2024-03-08T10:11:41;15.43;;;8.45;;
65377;SDS011;77039;51.042;13.806;2024-03-08T10:14:07;15.50;;;8.88;;
65377;SDS011;77039;51.042;13.806;2024-03-08T10:16:34;17.38;;;9.13;;
65377;SDS011;77039;51.042;13.806;2024-03-08T10:19:00;17.25;;;9.18;;
65377;SDS011;77039;51.042;13.806;2024-03-08T10:21:25;17.90;;;9.85;;
65377;SDS011;77039;51.042;13.806;2024-03-08T10:23:51;19.25;;;9.95;;
65377;SDS011;77039;51.042;13.806;2024-03-08T10:26:17;17.58;;;9.35;;
65377;SDS011;77039;51.042;13.806;2024-03-08T10:28:45;19.42;;;10.48;;
65377;SDS011;77039;51.042;13.806;2024-03-08T10:31:15;19.42;;;10.18;;
65377;SDS011;77039;51.042;13.806;2024-03-08T10:33:41;17.83;;;10.15;;
65377;SDS011;77039;51.042;13.806;2024-03-08T10:36:07;20.90;;;10.68;;
65377;SDS011;77039;51.042;13.806;2024-03-08T10:38:40;19.50;;;10.60;;
65377;SDS011;77039;51.042;13.806;2024-03-08T10:41:07;18.23;;;9.60;;
65377;SDS011;77039;51.042;13.806;2024-03-08T10:47:00;17.65;;;10.48;;
65377;SDS011;77039;51.042;13.806;2024-03-08T10:49:57;17.38;;;8.32;;
65377;SDS011;77039;51.042;13.806;2024-03-08T10:52:33;16.38;;;8.88;;
65377;SDS011;77039;51.042;13.806;2024-03-08T10:55:00;17.92;;;9.57;;
65377;SDS011;77039;51.042;13.806;2024-03-08T10:57:27;19.42;;;9.05;;
65377;SDS011;77039;51.042;13.806;2024-03-08T10:59:52;16.50;;;8.90;;
65377;SDS011;77039;51.042;13.806;2024-03-08T11:02:20;17.45;;;9.07;;
65377;SDS011;77039;51.042;13.806;2024-03-08T11:04:46;16.15;;;8.82;;
65377;SDS011;77039;51.042;13.806;2024-03-08T11:07:15;17.45;;;9.90;;
65377;SDS011;77039;51.042;13.806;2024-03-08T11:09:45;15.07;;;8.57;;
65377;SDS011;77039;51.042;13.806;2024-03-08T11:12:23;16.92;;;8.52;;
65377;SDS011;77039;51.042;13.806;2024-03-08T11:15:00;16.45;;;9.27;;
65377;SDS011;77039;51.042;13.806;2024-03-08T11:20:03;15.65;;;8.68;;
65377;SDS011;77039;51.042;13.806;2024-03-08T11:22:40;12.73;;;7.95;;
65377;SDS011;77039;51.042;13.806;2024-03-08T11:25:30;14.23;;;8.13;;
65377;SDS011;77039;51.042;13.806;2024-03-08T11:28:12;14.80;;;8.10;;
65377;SDS011;77039;51.042;13.806;2024-03-08T11:33:40;17.43;;;8.80;;
65377;SDS011;77039;51.042;13.806;2024-03-08T11:36:22;17.38;;;9.88;;
65377;SDS011;77039;51.042;13.806;2024-03-08T11:38:49;15.20;;;8.13;;
65377;SDS011;77039;51.042;13.806;2024-03-08T11:41:19;13.55;;;8.23;;
65377;SDS011;77039;51.042;13.806;2024-03-08T11:43:47;15.30;;;7.88;;
65377;SDS011;77039;51.042;13.806;2024-03-08T11:46:13;13.23;;;7.20;;
65377;SDS011;77039;51.042;13.806;2024-03-08T11:48:41;12.30;;;7.55;;
65377;SDS011;77039;51.042;13.806;2024-03-08T11:51:08;15.02;;;8.40;;
65377;SDS011;77039;51.042;13.806;2024-03-08T11:53:34;14.63;;;8.23;;
65377;SDS011;77039;51.042;13.806;2024-03-08T11:56:11;12.15;;;8.43;;
65377;SDS011;77039;51.042;13.806;2024-03-08T11:58:38;13.27;;;7.38;;
65377;SDS011;77039;51.042;13.806;2024-03-08T12:01:05;11.02;;;7.25;;
65377;SDS011;77039;51.042;13.806;2024-03-08T12:03:34;11.13;;;5.93;;
65377;SDS011;77039;51.042;13.806;2024-03-08T12:06:00;14.27;;;7.05;;
65377;SDS011;77039;51.042;13.806;2024-03-08T12:08:29;10.45;;;7.32;;
65377;SDS011;77039;51.042;13.806;2024-03-08T12:10:58;11.60;;;8.02;;
65377;SDS011;77039;51.042;13.806;2024-03-08T12:15:57;10.55;;;7.55;;
65377;SDS011;77039;51.042;13.806;2024-03-08T12:18:27;10.25;;;7.65;;
65377;SDS011;77039;51.042;13.806;2024-03-08T12:21:13;10.13;;;6.93;;
65377;SDS011;77039;51.042;13.806;2024-03-08T12:23:42;12.70;;;7.40;;
65377;SDS011;77039;51.042;13.806;2024-03-08T12:26:23;10.45;;;7.32;;
65377;SDS011;77039;51.042;13.806;2024-03-08T12:28:51;12.05;;;8.05;;
65377;SDS011;77039;51.042;13.806;2024-03-08T12:31:17;11.93;;;8.18;;
65377;SDS011;77039;51.042;13.806;2024-03-08T12:36:17;10.13;;;7.93;;
65377;SDS011;77039;51.042;13.806;2024-03-08T12:38:44;8.98;;;7.50;;
65377;SDS011;77039;51.042;13.806;2024-03-08T12:41:13;9.75;;;6.45;;
65377;SDS011;77039;51.042;13.806;2024-03-08T12:43:39;10.18;;;7.35;;
65377;SDS011;77039;51.042;13.806;2024-03-08T12:46:05;11.05;;;7.35;;
65377;SDS011;77039;51.042;13.806;2024-03-08T12:48:34;9.07;;;7.35;;
65377;SDS011;77039;51.042;13.806;2024-03-08T12:51:00;10.18;;;7.85;;
65377;SDS011;77039;51.042;13.806;2024-03-08T12:53:26;10.30;;;7.35;;
65377;SDS011;77039;51.042;13.806;2024-03-08T12:55:54;12.00;;;8.02;;
65377;SDS011;77039;51.042;13.806;2024-03-08T12:58:21;10.27;;;7.75;;
65377;SDS011;77039;51.042;13.806;2024-03-08T13:00:47;12.90;;;8.32;;
65377;SDS011;77039;51.042;13.806;2024-03-08T13:03:14;10.75;;;8.45;;
65377;SDS011;77039;51.042;13.806;2024-03-08T13:05:39;14.30;;;8.38;;
65377;SDS011;77039;51.042;13.806;2024-03-08T13:08:07;11.90;;;8.95;;
65377;SDS011;77039;51.042;13.806;2024-03-08T13:10:41;11.23;;;8.32;;
65377;SDS011;77039;51.042;13.806;2024-03-08T13:13:10;11.60;;;7.72;;
65377;SDS011;77039;51.042;13.806;2024-03-08T13:15:36;11.20;;;7.82;;
65377;SDS011;77039;51.042;13.806;2024-03-08T13:18:02;11.00;;;7.32;;
65377;SDS011;77039;51.042;13.806;2024-03-08T13:20:28;10.63;;;7.70;;
65377;SDS011;77039;51.042;13.806;2024-03-08T13:22:54;8.30;;;6.25;;
65377;SDS011;77039;51.042;13.806;2024-03-08T13:25:20;8.95;;;6.85;;
65377;SDS011;77039;51.042;13.806;2024-03-08T13:27:46;10.73;;;7.03;;
65377;SDS011;77039;51.042;13.806;2024-03-08T13:30:12;9.27;;;7.28;;
65377;SDS011;77039;51.042;13.806;2024-03-08T13:32:42;7.88;;;6.72;;
65377;SDS011;77039;51.042;13.806;2024-03-08T13:35:11;9.63;;;7.13;;
65377;SDS011;77039;51.042;13.806;2024-03-08T13:37:41;11.68;;;7.82;;
65377;SDS011;77039;51.042;13.806;2024-03-08T13:40:07;12.70;;;7.15;;
65377;SDS011;77039;51.042;13.806;2024-03-08T13:42:38;10.20;;;7.50;;
65377;SDS011;77039;51.042;13.806;2024-03-08T13:45:08;12.10;;;7.70;;
65377;SDS011;77039;51.042;13.806;2024-03-08T13:47:36;10.35;;;7.40;;
65377;SDS011;77039;51.042;13.806;2024-03-08T13:50:02;9.98;;;7.38;;
65377;SDS011;77039;51.042;13.806;2024-03-08T13:52:29;10.40;;;6.97;;
65377;SDS011;77039;51.042;13.806;2024-03-08T13:54:55;8.20;;;6.38;;
65377;SDS011;77039;51.042;13.806;2024-03-08T13:57:20;9.00;;;7.00;;
65377;SDS011;77039;51.042;13.806;2024-03-08T13:59:47;9.38;;;7.10;;
65377;SDS011;77039;51.042;13.806;2024-03-08T14:02:14;9.18;;;6.75;;
65377;SDS011;77039;51.042;13.806;2024-03-08T14:04:40;9.73;;;6.72;;
65377;SDS011;77039;51.042;13.806;2024-03-08T14:07:07;8.98;;;6.72;;
65377;SDS011;77039;51.042;13.806;2024-03-08T14:09:34;10.27;;;7.70;;
65377;SDS011;77039;51.042;13.806;2024-03-08T14:12:05;12.15;;;7.60;;
65377;SDS011;77039;51.042;13.806;2024-03-08T14:14:34;8.23;;;5.68;;
65377;SDS011;77039;51.042;13.806;2024-03-08T14:17:02;10.52;;;5.93;;
65377;SDS011;77039;51.042;13.806;2024-03-08T14:19:29;9.35;;;5.60;;
65377;SDS011;77039;51.042;13.806;2024-03-08T14:21:59;11.98;;;5.53;;
65377;SDS011;77039;51.042;13.806;2024-03-08T14:24:25;8.35;;;5.97;;
65377;SDS011;77039;51.042;13.806;2024-03-08T14:26:50;6.43;;;4.32;;
65377;SDS011;77039;51.042;13.806;2024-03-08T14:29:17;8.57;;;5.70;;
65377;SDS011;77039;51.042;13.806;2024-03-08T14:31:45;9.95;;;5.35;;